Time;durP1;ratioP1;P1;durP2;ratioP2;P2;SDS_P1;SDS_P2;PMS_P1;PMS_P2;Temp;Humidity;BMP_temperature;BMP_pressure;BME280_temperature;BME280_humidity;BME280_pressure;Samples;Min_cycle;Max_cycle;Signal;HPM_P1;HPM_P2
2022/04/11 00:02:13;;;;;;;6.63;3.42;;;3.60;57.30;;;-0.28;81.22;95721.16;5053736;28;20040;-51
2022/04/11 00:04:48;;;;;;;6.40;3.45;;;3.50;57.30;;;-0.39;82.10;95724.28;5053847;28;20488;-52
2022/04/11 00:07:23;;;;;;;3.10;2.47;;;3.50;57.50;;;-0.44;82.46;95727.47;5053798;28;20111;-54
2022/04/11 00:09:48;;;;;;;7.80;3.60;;;3.50;57.80;;;-0.44;82.10;95716.19;5053641;28;20491;-55
2022/04/11 00:12:17;;;;;;;5.05;3.50;;;3.50;57.80;;;-0.54;82.68;95712.09;5053628;28;20114;-52
2022/04/11 00:14:49;;;;;;;5.32;3.40;;;3.50;58.00;;;-0.53;82.69;95707.72;5052383;28;20086;-51
2022/04/11 00:17:17;;;;;;;3.80;2.90;;;3.50;58.20;;;-0.54;82.76;95706.88;5052427;28;20032;-51
2022/04/11 00:19:52;;;;;;;7.75;3.90;;;3.40;57.90;;;-0.62;82.85;95698.38;5053524;28;20032;-50
2022/04/11 00:22:21;;;;;;;5.85;3.40;;;3.40;58.00;;;-0.62;82.62;95714.09;5052350;28;20029;-49
2022/04/11 00:24:52;;;;;;;5.45;3.50;;;3.40;58.10;;;-0.70;83.33;95721.06;5053262;28;20033;-49
2022/04/11 00:27:19;;;;;;;5.55;3.50;;;3.40;58.20;;;-0.77;83.65;95714.97;5053441;28;20033;-51
2022/04/11 00:29:44;;;;;;;5.45;3.50;;;3.30;58.10;;;-0.78;84.10;95712.56;5050606;28;20029;-53
2022/04/11 00:32:10;;;;;;;5.30;3.70;;;3.30;58.30;;;-0.81;84.28;95711.13;5052181;28;20055;-51
2022/04/11 00:34:36;;;;;;;3.80;3.22;;;3.30;58.40;;;-0.83;84.50;95707.09;5051996;28;20052;-53
2022/04/11 00:37:02;;;;;;;4.65;3.33;;;3.30;58.40;;;-0.82;84.16;95717.34;5053216;28;20114;-52
2022/04/11 00:39:30;;;;;;;6.07;3.30;;;3.30;58.40;;;-0.88;84.85;95715.50;5052731;28;20049;-51
2022/04/11 00:41:56;;;;;;;5.40;3.28;;;3.20;58.40;;;-0.90;84.96;95711.47;5053108;28;20082;-52
2022/04/11 00:44:22;;;;;;;5.57;3.55;;;3.20;58.30;;;-0.96;85.41;95711.22;5051753;28;20487;-54
2022/04/11 00:46:50;;;;;;;5.38;4.00;;;3.20;58.40;;;-0.88;85.75;95709.47;5053091;28;20025;-51
2022/04/11 00:49:19;;;;;;;4.82;3.28;;;3.20;58.70;;;-0.81;85.05;95700.69;5051619;28;20025;-53
2022/04/11 00:51:48;;;;;;;6.78;3.30;;;3.30;58.90;;;-0.70;84.94;95701.94;5051983;28;20067;-52
2022/04/11 00:54:14;;;;;;;6.22;2.95;;;3.20;58.80;;;-0.65;84.81;95691.72;5051484;28;20136;-54
2022/04/11 00:56:40;;;;;;;4.50;3.28;;;3.30;58.90;;;-0.57;84.25;95685.53;5051676;28;20100;-51
2022/04/11 00:59:13;;;;;;;4.43;3.05;;;3.40;59.00;;;-0.47;84.04;95689.41;5052016;28;20029;-46
2022/04/11 01:01:39;;;;;;;3.72;2.80;;;3.50;59.30;;;-0.28;83.55;95693.16;5051692;28;20059;-48
2022/04/11 01:04:23;;;;;;;4.43;2.28;;;3.50;59.20;;;-0.11;82.71;95692.81;5052183;28;20043;-48
2022/04/11 01:06:51;;;;;;;;;;;3.60;59.20;;;0.00;82.21;95687.03;5053153;28;20411;-46
2022/04/11 01:09:25;;;;;;;3.75;2.60;;;3.70;58.90;;;0.04;81.43;95683.00;5051353;28;19935;-46
2022/04/11 01:11:51;;;;;;;4.00;2.72;;;3.70;58.90;;;0.11;81.74;95686.44;5051386;28;20430;-46
2022/04/11 01:14:21;;;;;;;4.38;2.63;;;3.80;58.80;;;0.20;81.03;95679.22;5051385;28;20063;-46
2022/04/11 01:16:51;;;;;;;4.05;2.70;;;3.90;59.00;;;0.20;80.92;95680.03;5052489;28;20395;-47
2022/04/11 01:19:20;;;;;;;5.05;2.72;;;3.90;58.90;;;0.12;80.98;95669.72;5051069;28;20024;-46
2022/04/11 01:21:47;;;;;;;7.72;2.58;;;3.90;58.70;;;0.02;81.22;95673.72;5051157;28;20128;-46
2022/04/11 01:24:21;;;;;;;3.83;2.72;;;3.80;58.60;;;-0.11;81.90;95672.66;5052463;28;20033;-48
2022/04/11 01:26:48;;;;;;;4.55;2.78;;;3.80;58.70;;;-0.16;82.18;95671.63;5052379;28;20033;-46
2022/04/11 01:29:16;;;;;;;3.65;2.40;;;3.70;58.70;;;-0.18;82.13;95671.84;5052089;28;20446;-46
2022/04/11 01:31:45;;;;;;;4.28;2.92;;;3.70;58.70;;;-0.27;82.45;95670.38;5051094;28;20370;-46
2022/04/11 01:34:11;;;;;;;3.25;2.65;;;3.60;58.80;;;-0.32;82.32;95675.38;5051033;28;20033;-46
2022/04/11 01:36:40;;;;;;;2.88;2.25;;;3.50;58.70;;;-0.45;82.01;95664.84;5052168;28;20039;-46
2022/04/11 01:39:05;;;;;;;3.45;2.75;;;3.50;58.70;;;-0.56;82.01;95667.03;5050840;28;20470;-50
2022/04/11 01:41:39;;;;;;;4.47;2.67;;;3.40;58.60;;;-0.69;82.16;95664.31;5050914;28;20170;-48
2022/04/11 01:44:08;;;;;;;5.15;2.47;;;3.30;58.60;;;-0.85;82.94;95652.34;5052029;28;20033;-47
2022/04/11 01:46:33;;;;;;;4.95;2.58;;;3.20;58.50;;;-0.83;83.49;95660.00;5050845;28;20110;-48
2022/04/11 01:49:02;;;;;;;3.35;2.47;;;3.20;58.70;;;-0.81;83.68;95661.44;5050692;28;20068;-49
2022/04/11 01:51:27;;;;;;;4.57;2.30;;;3.10;58.90;;;-0.76;83.56;95663.47;5053588;28;20032;-50
2022/04/11 01:53:56;;;;;;;3.63;2.42;;;3.10;59.00;;;-0.57;83.40;95656.72;5051046;28;20404;-50
2022/04/11 01:56:25;;;;;;;3.33;2.05;;;3.20;59.40;;;-0.33;81.73;95658.88;5052243;28;20025;-47
2022/04/11 01:58:50;;;;;;;4.75;2.10;;;3.30;59.70;;;-0.17;81.32;95660.34;5051910;28;20136;-51
2022/04/11 02:01:24;;;;;;;5.70;2.17;;;3.40;60.00;;;-0.07;80.83;95657.38;5067587;28;20467;-46
2022/04/11 02:03:50;;;;;;;6.13;2.28;;;3.50;60.30;;;-0.01;80.63;95648.72;5052022;28;20069;-47
2022/04/11 02:06:19;;;;;;;2.10;1.77;;;3.60;60.40;;;0.00;81.01;95647.75;5067456;28;20123;-46
2022/04/11 02:08:47;;;;;;;3.75;2.42;;;3.70;60.30;;;-0.06;80.58;95640.66;5051746;28;20400;-46
2022/04/11 02:11:28;;;;;;;3.92;2.10;;;3.70;60.00;;;-0.05;80.82;95637.84;5050957;28;20630;-47
2022/04/11 02:13:54;;;;;;;6.10;1.98;;;3.80;60.00;;;-0.04;81.10;95639.44;5051880;28;20035;-46
2022/04/11 02:16:26;;;;;;;2.47;2.22;;;3.80;59.90;;;-0.06;81.38;95622.34;5053910;28;20388;-46
2022/04/11 02:18:55;;;;;;;3.45;2.30;;;3.90;60.00;;;0.01;81.30;95614.50;5055679;28;20078;-47
2022/04/11 02:21:23;;;;;;;4.85;2.58;;;4.00;60.20;;;0.11;81.14;95613.09;5055785;28;20032;-47
2022/04/11 02:23:55;;;;;;;4.40;2.13;;;4.00;60.30;;;0.25;80.54;95608.69;5055589;28;20036;-47
2022/04/11 02:26:23;;;;;;;4.70;2.42;;;4.10;60.60;;;0.35;80.16;95605.69;5055898;28;20443;-52
2022/04/11 02:28:52;;;;;;;2.45;1.92;;;4.20;60.70;;;0.42;79.50;95611.75;5055587;28;20052;-46
2022/04/11 02:31:23;;;;;;;2.85;1.98;;;4.30;60.60;;;0.40;79.66;95593.59;5055512;28;20373;-47
2022/04/11 02:33:55;;;;;;;4.10;2.38;;;4.30;60.60;;;0.51;79.39;95589.59;5054433;28;20646;-47
2022/04/11 02:36:27;;;;;;;4.45;2.50;;;4.40;60.60;;;0.50;79.44;95577.47;5055402;28;20028;-47
2022/04/11 02:39:02;;;;;;;2.58;2.00;;;4.40;60.60;;;0.49;79.50;95575.84;5055152;28;20049;-46
2022/04/11 02:41:28;;;;;;;3.78;2.67;;;4.50;60.60;;;0.50;79.77;95566.97;5054113;28;20110;-47
2022/04/11 02:43:56;;;;;;;3.17;2.25;;;4.60;60.60;;;0.50;79.58;95556.50;5055444;28;20503;-46
2022/04/11 02:46:22;;;;;;;3.53;2.20;;;4.60;60.70;;;0.55;79.43;95561.94;5055257;28;20067;-48
2022/04/11 02:48:48;;;;;;;4.15;2.25;;;4.60;60.80;;;0.55;79.45;95554.09;5053715;28;20454;-45
2022/04/11 02:51:13;;;;;;;2.88;1.95;;;4.70;60.70;;;0.57;79.08;95554.69;5055243;28;20395;-48
2022/04/11 02:53:42;;;;;;;3.58;2.17;;;4.70;60.50;;;0.52;79.60;95544.00;5055393;28;20028;-46
2022/04/11 02:56:10;;;;;;;2.97;2.08;;;4.70;60.30;;;0.51;79.03;95539.78;5055124;28;20024;-47
2022/04/11 02:58:36;;;;;;;6.13;2.45;;;4.70;60.30;;;0.51;78.99;95545.03;5054992;28;20029;-47
2022/04/11 03:01:02;;;;;;;4.97;1.85;;;4.70;60.20;;;0.50;78.98;95535.53;5053863;28;20079;-47
2022/04/11 03:03:30;;;;;;;3.35;2.00;;;4.70;60.10;;;0.51;79.38;95533.72;5055129;28;20029;-46
2022/04/11 03:05:59;;;;;;;3.25;2.22;;;4.70;60.00;;;0.45;79.13;95540.59;5053621;28;20025;-46
2022/04/11 03:08:28;;;;;;;3.92;2.33;;;4.60;60.00;;;0.38;79.45;95539.78;5053603;28;20021;-46
2022/04/11 03:10:56;;;;;;;5.18;2.40;;;4.60;60.00;;;0.34;79.39;95544.59;5054876;28;20402;-47
2022/04/11 03:13:22;;;;;;;3.90;2.22;;;4.50;59.90;;;0.31;79.48;95537.13;5055204;28;20025;-46
2022/04/11 03:15:50;;;;;;;4.68;2.50;;;4.50;59.80;;;0.25;79.78;95531.91;5054554;28;20028;-49
2022/04/11 03:18:18;;;;;;;2.85;1.90;;;4.40;59.80;;;0.19;80.01;95523.84;5053442;28;20032;-47
2022/04/11 03:20:56;;;;;;;4.55;2.40;;;4.40;59.80;;;0.09;80.21;95525.25;5054781;28;20162;-47
2022/04/11 03:23:30;;;;;;;4.25;2.15;;;4.30;59.80;;;0.04;80.57;95517.19;5054612;28;20060;-46
2022/04/11 03:25:56;;;;;;;3.60;2.50;;;4.20;59.90;;;0.06;80.52;95515.16;5054624;28;20025;-50
2022/04/11 03:28:22;;;;;;;3.80;2.20;;;4.20;59.90;;;0.01;80.87;95513.16;5053752;28;20029;-46
2022/04/11 03:30:47;;;;;;;4.25;2.15;;;4.10;59.90;;;0.02;80.88;95514.75;5069553;28;20051;-49
2022/04/11 03:33:13;;;;;;;3.35;2.50;;;4.10;59.90;;;0.01;81.35;95509.75;5054526;28;20029;-47
2022/04/11 03:35:42;;;;;;;3.63;2.55;;;4.10;60.00;;;0.04;81.27;95507.53;5053168;28;20048;-47
2022/04/11 03:38:08;;;;;;;3.28;2.30;;;4.10;60.30;;;0.11;81.07;95508.31;5052776;28;20048;-46
2022/04/11 03:40:37;;;;;;;5.72;2.70;;;4.10;60.60;;;0.08;81.80;95513.16;5054191;28;20036;-47
2022/04/11 03:43:06;;;;;;;4.43;2.72;;;4.10;60.80;;;0.02;81.47;95506.09;5052954;28;20036;-47
2022/04/11 03:45:32;;;;;;;6.18;2.70;;;4.10;60.80;;;0.02;81.89;95512.13;5053111;28;20078;-47
2022/04/11 03:47:57;;;;;;;3.70;2.60;;;4.00;60.50;;;-0.10;82.76;95516.34;5054207;28;20108;-49
2022/04/11 03:50:23;;;;;;;4.50;3.25;;;4.00;60.70;;;-0.16;83.43;95514.53;5054060;28;20037;-46
2022/04/11 03:52:49;;;;;;;5.28;3.00;;;4.00;60.90;;;-0.21;84.08;95506.47;5054036;28;20032;-46
2022/04/11 03:55:27;;;;;;;5.32;3.13;;;3.90;60.90;;;-0.21;83.98;95502.03;5053972;28;20025;-46
2022/04/11 03:57:56;;;;;;;5.07;3.40;;;3.90;61.30;;;-0.25;84.02;95493.00;5053947;28;20033;-46
2022/04/11 04:00:22;;;;;;;6.53;3.35;;;3.90;61.50;;;-0.26;83.64;95492.16;5054144;28;20025;-48
2022/04/11 04:02:48;;;;;;;4.57;3.28;;;3.80;61.40;;;-0.31;84.27;95483.31;5053999;28;20087;-48
2022/04/11 04:05:16;;;;;;;6.32;3.40;;;3.80;61.60;;;-0.33;84.26;95487.94;5052439;28;20032;-49
2022/04/11 04:07:42;;;;;;;5.35;3.00;;;3.70;62.50;;;-0.40;84.37;95487.13;5053746;28;20060;-46
2022/04/11 04:10:09;;;;;;;3.97;3.20;;;3.70;62.00;;;-0.44;84.19;95491.13;5053524;28;20542;-47
2022/04/11 04:12:34;;;;;;;5.10;3.53;;;3.60;62.10;;;-0.54;85.28;95484.44;5053900;28;20029;-47
2022/04/11 04:15:13;;;;;;;4.85;3.75;;;3.50;62.30;;;-0.55;85.29;95487.28;5085839;28;20029;-46
2022/04/11 04:17:39;;;;;;;5.40;3.63;;;3.60;62.80;;;-0.55;85.39;95492.50;5052637;28;20471;-46
2022/04/11 04:20:07;;;;;;;7.78;3.70;;;3.50;62.80;;;-0.58;85.04;95493.69;5054016;28;20470;-47
2022/04/11 04:22:33;;;;;;;4.00;3.05;;;3.50;63.00;;;-0.62;85.01;95491.69;5053522;28;20037;-47
2022/04/11 04:25:02;;;;;;;4.65;2.92;;;3.40;62.90;;;-0.67;85.28;95491.47;5053378;28;20116;-46
2022/04/11 04:27:28;;;;;;;4.10;3.22;;;3.30;63.00;;;-0.76;85.50;95486.38;5052312;28;20061;-46
2022/04/11 04:29:53;;;;;;;4.97;3.45;;;3.30;63.10;;;-0.79;85.44;95496.44;5053207;28;20025;-47
2022/04/11 04:32:22;;;;;;;7.95;3.40;;;3.20;63.20;;;-0.83;85.66;95496.03;5053368;28;20082;-46
2022/04/11 04:34:51;;;;;;;7.85;3.20;;;3.20;63.50;;;-0.91;85.95;95488.34;5051922;28;20021;-47
2022/04/11 04:37:17;;;;;;;4.55;3.10;;;3.10;63.50;;;-0.91;86.13;95484.94;5053719;28;20390;-46
2022/04/11 04:39:54;;;;;;;4.95;3.72;;;3.10;63.60;;;-0.95;86.28;95482.69;5052033;28;20049;-48
2022/04/11 04:42:29;;;;;;;5.68;3.67;;;3.10;63.80;;;-0.96;86.65;95482.91;5053164;28;20032;-46
2022/04/11 04:44:55;;;;;;;5.30;3.92;;;3.00;63.90;;;-0.96;86.64;95482.91;5052065;28;20491;-48
2022/04/11 04:47:22;;;;;;;7.03;3.58;;;3.10;64.30;;;-0.96;86.67;95480.28;5051728;28;20028;-46
2022/04/11 04:49:48;;;;;;;5.10;3.97;;;3.00;64.40;;;-0.91;87.00;95490.16;5051615;28;20082;-48
2022/04/11 04:52:16;;;;;;;5.13;3.92;;;3.00;64.50;;;-0.90;86.95;95494.41;5051755;28;20475;-47
2022/04/11 04:54:42;;;;;;;8.57;4.20;;;3.10;64.70;;;-0.88;87.05;95493.19;5052963;28;20024;-49
2022/04/11 04:57:08;;;;;;;9.38;4.80;;;3.10;64.80;;;-0.87;87.13;95492.19;5052921;28;20027;-48
2022/04/11 04:59:38;;;;;;;9.43;4.72;;;3.10;65.00;;;-0.87;87.42;95494.00;5051479;28;20182;-47
2022/04/11 05:02:04;;;;;;;7.28;4.53;;;3.10;65.00;;;-0.84;87.36;95501.47;5052668;28;20040;-46
2022/04/11 05:04:29;;;;;;;9.18;4.35;;;3.10;65.10;;;-0.85;86.84;95507.69;5051638;28;20365;-46
2022/04/11 05:06:55;;;;;;;5.78;4.82;;;3.10;65.00;;;-0.90;87.00;95513.50;5049087;28;20028;-45
2022/04/11 05:09:21;;;;;;;6.00;4.53;;;3.10;65.00;;;-0.90;87.16;95518.75;5043815;28;20482;-45
2022/04/11 05:11:50;;;;;;;8.18;4.80;;;3.10;65.00;;;-0.91;86.93;95516.31;5048826;28;20107;-45
2022/04/11 05:14:15;;;;;;;5.60;4.15;;;3.20;65.00;;;-0.79;87.28;95517.38;5044794;28;20040;-50
2022/04/11 05:16:49;;;;;;;7.63;4.40;;;3.20;65.00;;;-0.61;87.15;95509.78;5035663;28;20036;-46
2022/04/11 05:19:15;;;;;;;8.25;4.43;;;3.20;65.30;;;-0.47;86.79;95514.06;5049533;28;20040;-47
2022/04/11 05:21:44;;;;;;;7.38;4.63;;;3.40;65.50;;;-0.24;86.01;95512.91;5035359;28;20040;-46
2022/04/11 05:24:10;;;;;;;6.63;5.18;;;3.50;65.70;;;0.06;85.39;95517.78;5032247;28;20034;-46
2022/04/11 05:26:35;;;;;;;6.25;3.88;;;3.70;65.90;;;0.33;84.32;95514.16;5045897;28;20980;-53
2022/04/11 05:29:03;;;;;;;5.30;3.78;;;3.90;66.00;;;0.59;83.09;95515.97;5048957;28;20033;-52
2022/04/11 05:31:29;;;;;;;6.32;3.97;;;4.30;66.10;;;0.83;81.97;95517.13;5064787;28;20091;-46
2022/04/11 05:33:55;;;;;;;5.57;3.60;;;4.60;65.80;;;1.04;80.63;95518.72;5046105;28;20430;-54
2022/04/11 05:36:20;;;;;;;5.05;3.55;;;4.90;65.40;;;1.22;79.97;95527.72;5049447;28;20392;-47
2022/04/11 05:38:46;;;;;;;6.57;3.78;;;5.30;65.00;;;1.44;78.81;95531.69;5023835;28;20056;-51
2022/04/11 05:41:14;;;;;;;6.20;3.55;;;5.60;64.30;;;1.58;78.07;95530.63;5048269;28;20108;-49
2022/04/11 05:43:40;;;;;;;4.28;3.63;;;5.90;63.60;;;1.77;77.25;95536.78;5048125;28;20055;-47
2022/04/11 05:46:06;;;;;;;5.80;3.55;;;6.30;63.80;;;1.96;76.38;95537.69;5066826;28;20032;-46
2022/04/11 05:48:32;;;;;;;6.82;3.33;;;6.60;62.30;;;2.18;75.86;95543.41;5042283;28;20546;-46
2022/04/11 05:51:01;;;;;;;3.47;3.03;;;6.90;61.60;;;2.38;74.96;95537.19;5044389;28;20017;-50
2022/04/11 05:53:29;;;;;;;3.60;3.20;;;7.20;61.00;;;2.67;73.92;95538.41;5050011;28;20063;-47
2022/04/11 05:55:58;;;;;;;4.72;2.97;;;7.40;60.50;;;2.91;72.66;95545.44;5050484;28;20576;-46
2022/04/11 05:58:24;;;;;;;3.90;2.90;;;7.70;60.00;;;3.20;71.55;95543.94;5050463;28;20059;-49
2022/04/11 06:00:49;;;;;;;3.78;2.85;;;8.00;59.50;;;3.42;70.87;95552.22;5043275;28;20484;-47
2022/04/11 06:03:15;;;;;;;4.28;3.00;;;8.30;59.00;;;3.70;69.60;95551.69;5049029;28;20021;-47
2022/04/11 06:05:41;;;;;;;4.25;3.08;;;8.60;58.60;;;3.83;69.20;95565.72;5048642;28;20659;-47
2022/04/11 06:08:07;;;;;;;3.05;2.63;;;8.90;57.80;;;4.18;67.98;95566.66;5051869;28;20041;-47
2022/04/11 06:10:33;;;;;;;3.95;2.75;;;9.20;57.50;;;4.58;66.68;95567.91;4999845;28;20037;-51
2022/04/11 06:12:58;;;;;;;3.15;2.38;;;9.60;57.30;;;5.05;65.09;95574.03;5032150;28;20053;-51
2022/04/11 06:15:24;;;;;;;2.92;2.50;;;9.90;57.10;;;5.52;63.72;95579.28;5031842;28;20076;-47
2022/04/11 06:17:50;;;;;;;3.17;2.60;;;10.40;56.80;;;6.02;61.83;95570.78;5032181;28;20104;-48
2022/04/11 06:20:21;;;;;;;2.53;2.28;;;10.80;56.50;;;6.47;59.57;95577.13;4997613;28;20129;-47
2022/04/11 06:22:57;;;;;;;3.65;2.58;;;11.20;56.20;;;6.88;58.80;95570.66;5018843;28;20072;-47
2022/04/11 06:25:23;;;;;;;4.00;2.40;;;11.80;55.40;;;7.28;57.35;95563.56;5014190;28;20028;-49
2022/04/11 06:27:49;;;;;;;3.67;2.50;;;12.30;54.90;;;7.62;55.94;95561.63;5031872;28;20472;-47
2022/04/11 06:30:17;;;;;;;3.50;2.38;;;12.80;53.80;;;7.91;55.71;95566.75;5037883;28;20021;-51
2022/04/11 06:32:46;;;;;;;2.10;1.90;;;13.30;52.80;;;8.19;54.12;95579.00;5051855;28;20056;-49
2022/04/11 06:35:15;;;;;;;3.00;2.30;;;13.70;51.60;;;8.31;53.94;95584.97;5051652;28;20109;-52
2022/04/11 06:37:40;;;;;;;2.83;2.30;;;14.20;50.90;;;8.47;53.40;95592.06;5049997;28;20549;-47
2022/04/11 06:40:07;;;;;;;3.33;2.30;;;14.60;50.10;;;8.88;52.24;95584.47;5051907;28;20041;-50
2022/04/11 06:42:35;;;;;;;3.03;2.28;;;15.00;49.20;;;9.11;52.14;95577.19;5067008;28;20060;-47
2022/04/11 06:45:04;;;;;;;3.42;2.20;;;15.40;48.00;;;9.02;51.88;95571.53;5050428;28;20069;-47
2022/04/11 06:47:30;;;;;;;4.18;2.20;;;15.70;47.00;;;8.81;52.34;95559.97;5051615;28;20087;-49
2022/04/11 06:49:56;;;;;;;2.53;2.03;;;16.00;45.90;;;9.02;52.18;95560.91;5012612;28;20033;-51
2022/04/11 06:52:21;;;;;;;3.45;2.35;;;16.30;44.90;;;9.38;51.97;95550.53;5024594;28;20060;-50
2022/04/11 06:54:47;;;;;;;2.35;1.83;;;16.50;44.40;;;9.29;50.40;95560.84;5040680;28;20460;-49
2022/04/11 06:57:19;;;;;;;5.55;2.35;;;16.70;43.60;;;9.72;50.53;95557.09;5051077;28;20060;-49
2022/04/11 06:59:45;;;;;;;5.47;2.30;;;16.90;42.80;;;10.12;49.71;95538.84;5039320;23;20065;-51
2022/04/11 07:02:17;;;;;;;3.25;2.08;;;17.20;42.60;;;10.34;49.03;95543.97;5009497;28;20447;-50
2022/04/11 07:04:45;;;;;;;2.70;2.30;;;17.40;42.10;;;9.94;49.41;95553.44;5015284;28;20032;-50
2022/04/11 07:07:25;;;;;;;3.63;1.90;;;17.70;41.10;;;10.50;48.18;95560.78;5015380;28;20022;-47
2022/04/11 07:09:50;;;;;;;3.65;1.92;;;17.90;40.40;;;10.83;47.32;95554.97;5023757;28;20030;-51
2022/04/11 07:12:16;;;;;;;2.83;2.35;;;18.20;40.10;;;11.02;47.00;95551.75;5035095;28;20510;-50
2022/04/11 07:14:42;;;;;;;2.55;1.83;;;18.40;39.70;;;11.20;45.50;95545.09;5035061;28;20060;-53
2022/04/11 07:17:07;;;;;;;4.07;2.08;;;18.70;39.20;;;11.50;45.37;95542.38;5033872;28;20029;-53
2022/04/11 07:19:33;;;;;;;2.45;2.13;;;19.00;38.50;;;11.97;44.67;95532.34;5017099;28;20021;-52
2022/04/11 07:21:59;;;;;;;2.10;1.90;;;19.40;38.00;;;12.06;43.91;95533.34;5033656;28;20041;-53
2022/04/11 07:24:28;;;;;;;2.22;2.03;;;19.70;37.30;;;12.46;43.91;95532.34;5033569;28;20037;-49
2022/04/11 07:26:53;;;;;;;2.42;1.90;;;20.00;36.50;;;12.40;42.77;95540.66;5035135;28;20025;-50
2022/04/11 07:29:26;;;;;;;2.85;2.10;;;20.20;35.80;;;12.72;42.06;95546.34;5023259;28;20148;-50
2022/04/11 07:31:51;;;;;;;4.18;2.00;;;20.50;35.20;;;12.60;41.41;95547.75;5014826;28;20061;-50
2022/04/11 07:34:20;;;;;;;2.30;1.63;;;20.80;34.50;;;12.95;39.54;95560.06;5026661;28;20053;-48
2022/04/11 07:36:46;;;;;;;1.60;1.50;;;21.10;34.00;;;13.14;38.59;95552.94;5033459;28;20053;-48
2022/04/11 07:39:15;;;;;;;3.10;1.80;;;21.40;33.40;;;13.67;37.63;95549.50;5034527;28;20507;-50
2022/04/11 07:42:00;;;;;;;2.47;2.03;;;21.90;32.90;;;14.29;36.90;95565.63;5034535;28;20030;-48
2022/04/11 07:44:25;;;;;;;1.67;1.58;;;22.40;32.40;;;14.79;36.01;95552.63;5031620;28;20120;-50
2022/04/11 07:46:54;;;;;;;3.47;2.20;;;22.90;32.00;;;15.03;33.92;95564.03;5034118;28;20108;-51
2022/04/11 07:49:20;;;;;;;2.13;1.80;;;23.40;30.60;;;14.23;35.12;95559.56;5032900;28;20480;-51
2022/04/11 07:51:45;;;;;;;2.15;1.30;;;23.70;29.90;;;14.65;35.28;95559.81;5033521;28;20025;-48
2022/04/11 07:54:11;;;;;;;1.45;1.35;;;24.00;29.40;;;14.50;33.39;95572.31;5015377;28;20072;-52
2022/04/11 07:56:37;;;;;;;1.65;1.30;;;24.30;28.60;;;14.61;33.40;95556.13;5014366;28;20117;-48
2022/04/11 07:59:03;;;;;;;1.83;1.50;;;24.50;27.80;;;14.81;33.43;95567.34;5013858;28;20060;-51
2022/04/11 08:01:31;;;;;;;2.95;1.30;;;24.50;27.40;;;15.15;32.95;95558.22;5046043;28;20034;-50
2022/04/11 08:03:57;;;;;;;1.80;1.50;;;24.70;27.00;;;15.21;34.09;95550.91;5014251;28;20025;-51
2022/04/11 08:06:35;;;;;;;2.42;1.40;;;24.90;26.90;;;14.79;35.20;95540.03;5014280;28;20029;-48
2022/04/11 08:09:04;;;;;;;1.70;1.50;;;25.10;26.20;;;15.21;33.67;95538.28;5014047;28;20053;-48
2022/04/11 08:11:30;;;;;;;2.30;1.75;;;25.20;26.20;;;15.55;34.98;95539.03;5013981;28;20396;-50
2022/04/11 08:13:56;;;;;;;1.80;1.42;;;25.40;26.30;;;15.71;33.85;95543.84;5029095;28;20113;-49
2022/04/11 08:16:22;;;;;;;3.80;1.50;;;25.60;26.00;;;15.27;33.64;95542.47;5029105;28;20113;-50
2022/04/11 08:18:48;;;;;;;1.90;1.60;;;25.80;25.70;;;15.90;32.34;95546.44;5013492;28;20026;-48
2022/04/11 08:21:25;;;;;;;2.63;1.52;;;25.90;25.40;;;16.25;31.62;95537.94;5012609;28;20022;-52
2022/04/11 08:23:51;;;;;;;2.58;1.40;;;26.20;24.90;;;16.39;31.59;95539.50;5013981;28;20392;-50
2022/04/11 08:26:19;;;;;;;3.00;1.60;;;26.40;24.80;;;16.90;31.04;95532.22;5013622;28;20097;-52
2022/04/11 08:28:45;;;;;;;2.97;1.67;;;26.60;24.50;;;17.29;30.41;95541.47;5013593;28;20017;-52
2022/04/11 08:31:11;;;;;;;1.85;1.38;;;26.70;24.20;;;17.61;30.08;95537.66;5012442;28;20040;-50
2022/04/11 08:33:37;;;;;;;2.35;1.30;;;27.00;24.30;;;17.74;29.54;95536.78;5045587;28;20022;-55
2022/04/11 08:36:03;;;;;;;1.60;1.50;;;27.30;23.90;;;17.78;28.81;95539.69;5028801;28;20054;-51
2022/04/11 08:38:34;;;;;;;3.30;1.67;;;27.60;23.50;;;17.62;29.17;95531.19;5012175;28;20033;-52
2022/04/11 08:41:03;;;;;;;1.63;1.27;;;27.90;23.20;;;17.77;29.46;95528.13;5013488;28;20033;-53
2022/04/11 08:43:32;;;;;;;2.85;1.42;;;28.20;22.80;;;17.80;29.16;95527.50;5045294;28;20096;-54
2022/04/11 08:46:06;;;;;;;2.63;1.83;;;28.40;22.50;;;17.91;28.29;95536.09;5044597;28;20053;-54
2022/04/11 08:48:35;;;;;;;2.17;1.80;;;28.50;21.90;;;17.12;29.48;95531.41;5012131;28;20034;-51
2022/04/11 08:51:03;;;;;;;1.80;1.45;;;28.70;21.80;;;17.42;29.10;95534.41;5044856;28;20029;-52
2022/04/11 08:53:29;;;;;;;2.05;1.50;;;28.80;21.60;;;17.57;28.66;95534.00;5013361;28;20037;-50
2022/04/11 08:55:55;;;;;;;1.63;1.52;;;28.80;21.30;;;17.83;28.44;95525.28;5013219;28;20030;-54
2022/04/11 08:58:21;;;;;;;2.08;1.70;;;29.00;21.30;;;17.95;27.85;95517.38;5013342;28;20030;-50
2022/04/11 09:00:56;;;;;;;2.45;1.80;;;29.20;21.10;;;18.22;28.87;95519.06;5044705;28;20050;-49
2022/04/11 09:03:21;;;;;;;1.52;1.42;;;29.40;20.90;;;17.82;29.38;95510.22;5045016;28;20401;-53
2022/04/11 09:06:06;;;;;;;4.13;1.73;;;29.60;20.80;;;18.43;29.12;95528.13;5013069;28;20028;-49
2022/04/11 09:08:55;;;;;;;2.55;1.98;;;29.70;20.70;;;18.80;27.79;95525.13;5044495;28;20076;-52
2022/04/11 09:11:36;;;;;;;1.83;1.63;;;29.90;20.40;;;18.30;27.52;95514.78;5044892;28;20034;-50
2022/04/11 09:14:07;;;;;;;2.92;1.52;;;30.10;20.40;;;18.95;28.05;95521.97;5012897;28;20064;-53
2022/04/11 09:16:55;;;;;;;3.35;1.75;;;30.30;20.40;;;19.26;27.67;95523.66;5044304;28;20022;-50
2022/04/11 09:19:33;;;;;;;1.52;1.42;;;30.50;20.30;;;19.24;27.34;95524.00;4981597;28;20120;-53
2022/04/11 09:22:00;;;;;;;3.00;2.00;;;30.60;19.80;;;19.37;25.85;95516.81;5011587;28;20026;-51
2022/04/11 09:24:26;;;;;;;1.95;1.70;;;30.70;19.60;;;19.44;25.58;95513.63;5012707;28;20036;-55
2022/04/11 09:26:58;;;;;;;1.60;1.48;;;30.80;19.50;;;19.26;27.16;95516.34;5043933;28;20100;-54
2022/04/11 09:29:27;;;;;;;1.55;1.45;;;30.90;19.10;;;19.38;26.57;95518.41;5040350;28;20030;-53
2022/04/11 09:31:53;;;;;;;1.60;1.50;;;31.00;19.30;;;19.87;26.84;95514.28;4987401;28;20037;-49
2022/04/11 09:34:21;;;;;;;2.97;1.83;;;31.20;19.20;;;20.20;26.67;95510.13;5031297;28;20025;-51
2022/04/11 09:36:56;;;;;;;2.67;1.80;;;31.50;19.20;;;20.46;25.95;95518.84;5031260;28;20060;-50
2022/04/11 09:39:24;;;;;;;1.80;1.63;;;31.70;18.90;;;20.36;24.54;95513.84;5031809;28;20094;-49
2022/04/11 09:41:52;;;;;;;2.63;2.25;;;31.80;18.60;;;19.90;26.52;95512.03;5032429;28;20056;-51
2022/04/11 09:44:29;;;;;;;2.05;1.90;;;32.00;18.60;;;20.22;26.73;95510.59;5032360;28;20431;-50
2022/04/11 09:47:05;;;;;;;3.70;2.40;;;32.20;18.60;;;20.52;26.79;95500.53;5031365;28;20021;-51
2022/04/11 09:49:33;;;;;;;3.05;2.50;;;32.30;18.70;;;20.94;27.54;95503.25;5030987;28;20435;-53
2022/04/11 09:52:11;;;;;;;2.08;1.95;;;32.40;18.80;;;21.13;25.35;95500.03;5030937;28;20112;-49
2022/04/11 09:54:57;;;;;;;3.85;2.30;;;32.60;18.70;;;20.91;26.16;95495.78;5031152;28;20021;-49
2022/04/11 09:57:26;;;;;;;3.67;2.28;;;32.70;18.70;;;21.43;26.21;95490.66;5030979;28;20026;-52
2022/04/11 09:59:53;;;;;;;3.88;2.13;;;32.80;18.60;;;21.40;25.12;95490.53;5031707;28;20044;-54
2022/04/11 10:02:22;;;;;;;2.83;2.47;;;32.80;18.30;;;21.00;26.79;95488.38;5030847;28;20079;-50
2022/04/11 10:04:49;;;;;;;3.70;2.50;;;33.00;18.20;;;20.75;27.39;95488.28;5030972;28;20064;-51
2022/04/11 10:07:18;;;;;;;2.63;2.42;;;33.00;18.30;;;21.03;28.79;95480.38;5014602;28;20029;-50
2022/04/11 10:09:56;;;;;;;3.50;2.72;;;33.20;18.50;;;21.22;26.32;95484.50;5031985;28;20060;-49
2022/04/11 10:12:22;;;;;;;2.65;2.42;;;33.30;18.20;;;21.31;26.67;95487.09;5030846;28;20079;-53
2022/04/11 10:14:48;;;;;;;6.28;3.10;;;33.40;18.30;;;21.02;28.04;95481.47;5030775;28;20033;-56
2022/04/11 10:17:16;;;;;;;3.30;2.55;;;33.20;18.20;;;21.29;27.94;95473.09;5012091;28;20469;-56
2022/04/11 10:19:44;;;;;;;3.55;2.58;;;33.20;18.40;;;21.11;27.56;95477.91;5010557;28;20026;-52
2022/04/11 10:22:26;;;;;;;4.63;3.10;;;33.10;18.20;;;20.39;27.63;95478.00;5004927;28;20025;-51
2022/04/11 10:25:02;;;;;;;3.30;2.80;;;33.20;18.60;;;20.43;28.76;95475.44;5009801;28;20385;-50
2022/04/11 10:27:32;;;;;;;3.35;2.58;;;33.30;18.20;;;21.32;28.27;95473.22;5009199;28;20029;-51
2022/04/11 10:29:59;;;;;;;3.00;2.65;;;33.40;18.40;;;21.69;27.12;95468.69;4991000;28;20080;-50
2022/04/11 10:32:27;;;;;;;2.88;2.63;;;33.60;18.30;;;21.03;27.42;95471.47;5022164;28;20041;-50